sensor_id;sensor_type;location;lat;lon;timestamp;P1;durP1;ratioP1;P2;durP2;ratioP2
68653;SDS011;55636;51.108;13.622;2023-08-06T00:00:23;5.53;;;4.32;;
68653;SDS011;55636;51.108;13.622;2023-08-06T00:01:25;4.35;;;3.97;;
68653;SDS011;55636;51.108;13.622;2023-08-06T00:02:28;4.40;;;4.00;;
68653;SDS011;55636;51.108;13.622;2023-08-06T00:03:31;4.40;;;4.00;;
68653;SDS011;55636;51.108;13.622;2023-08-06T00:04:34;4.60;;;4.20;;
68653;SDS011;55636;51.108;13.622;2023-08-06T00:05:36;4.50;;;4.10;;
68653;SDS011;55636;51.108;13.622;2023-08-06T00:06:39;4.38;;;3.97;;
68653;SDS011;55636;51.108;13.622;2023-08-06T00:07:42;4.30;;;3.90;;
68653;SDS011;55636;51.108;13.622;2023-08-06T00:08:44;4.75;;;4.35;;
68653;SDS011;55636;51.108;13.622;2023-08-06T00:09:47;4.57;;;4.18;;
68653;SDS011;55636;51.108;13.622;2023-08-06T00:10:49;4.53;;;4.07;;
68653;SDS011;55636;51.108;13.622;2023-08-06T00:11:52;4.30;;;3.90;;
68653;SDS011;55636;51.108;13.622;2023-08-06T00:12:55;4.10;;;3.80;;
68653;SDS011;55636;51.108;13.622;2023-08-06T00:13:58;4.20;;;3.90;;
68653;SDS011;55636;51.108;13.622;2023-08-06T00:15:01;4.70;;;4.30;;
68653;SDS011;55636;51.108;13.622;2023-08-06T00:16:12;4.15;;;3.80;;
68653;SDS011;55636;51.108;13.622;2023-08-06T00:17:16;4.13;;;3.83;;
68653;SDS011;55636;51.108;13.622;2023-08-06T00:18:18;4.70;;;4.30;;
68653;SDS011;55636;51.108;13.622;2023-08-06T00:19:21;4.10;;;3.80;;
68653;SDS011;55636;51.108;13.622;2023-08-06T00:20:23;4.30;;;3.95;;
68653;SDS011;55636;51.108;13.622;2023-08-06T00:21:26;4.50;;;4.05;;
68653;SDS011;55636;51.108;13.622;2023-08-06T00:22:28;3.90;;;3.60;;
68653;SDS011;55636;51.108;13.622;2023-08-06T00:23:31;4.10;;;3.70;;
68653;SDS011;55636;51.108;13.622;2023-08-06T00:24:34;4.40;;;4.00;;
68653;SDS011;55636;51.108;13.622;2023-08-06T00:25:36;4.13;;;3.83;;
68653;SDS011;55636;51.108;13.622;2023-08-06T00:26:39;4.25;;;3.80;;
68653;SDS011;55636;51.108;13.622;2023-08-06T00:27:41;4.60;;;4.20;;
68653;SDS011;55636;51.108;13.622;2023-08-06T00:28:44;4.30;;;3.90;;
68653;SDS011;55636;51.108;13.622;2023-08-06T00:29:46;4.10;;;3.80;;
68653;SDS011;55636;51.108;13.622;2023-08-06T00:30:52;4.00;;;3.55;;
68653;SDS011;55636;51.108;13.622;2023-08-06T00:31:57;3.80;;;3.50;;
68653;SDS011;55636;51.108;13.622;2023-08-06T00:33:00;4.57;;;4.18;;
68653;SDS011;55636;51.108;13.622;2023-08-06T00:34:02;4.50;;;4.10;;
68653;SDS011;55636;51.108;13.622;2023-08-06T00:35:05;4.68;;;4.05;;
68653;SDS011;55636;51.108;13.622;2023-08-06T00:36:08;4.70;;;3.72;;
68653;SDS011;55636;51.108;13.622;2023-08-06T00:37:11;4.15;;;3.67;;
68653;SDS011;55636;51.108;13.622;2023-08-06T00:38:13;4.00;;;3.70;;
68653;SDS011;55636;51.108;13.622;2023-08-06T00:39:16;4.25;;;3.85;;
68653;SDS011;55636;51.108;13.622;2023-08-06T00:40:19;4.00;;;3.70;;
68653;SDS011;55636;51.108;13.622;2023-08-06T00:41:24;4.05;;;3.75;;
68653;SDS011;55636;51.108;13.622;2023-08-06T00:42:26;7.30;;;4.18;;
68653;SDS011;55636;51.108;13.622;2023-08-06T00:43:28;4.10;;;3.80;;
68653;SDS011;55636;51.108;13.622;2023-08-06T00:44:31;3.90;;;3.60;;
68653;SDS011;55636;51.108;13.622;2023-08-06T00:45:34;4.18;;;3.83;;
68653;SDS011;55636;51.108;13.622;2023-08-06T00:46:38;4.28;;;3.88;;
68653;SDS011;55636;51.108;13.622;2023-08-06T00:47:41;4.60;;;4.18;;
68653;SDS011;55636;51.108;13.622;2023-08-06T00:48:43;4.18;;;3.80;;
68653;SDS011;55636;51.108;13.622;2023-08-06T00:49:46;4.32;;;3.60;;
68653;SDS011;55636;51.108;13.622;2023-08-06T00:50:49;4.15;;;3.85;;
68653;SDS011;55636;51.108;13.622;2023-08-06T00:51:52;4.30;;;4.00;;
68653;SDS011;55636;51.108;13.622;2023-08-06T00:52:55;5.38;;;4.07;;
68653;SDS011;55636;51.108;13.622;2023-08-06T00:53:58;4.32;;;4.00;;
68653;SDS011;55636;51.108;13.622;2023-08-06T00:55:00;4.05;;;3.75;;
68653;SDS011;55636;51.108;13.622;2023-08-06T00:56:03;4.20;;;3.80;;
68653;SDS011;55636;51.108;13.622;2023-08-06T00:57:05;4.05;;;3.70;;
68653;SDS011;55636;51.108;13.622;2023-08-06T00:58:09;4.43;;;4.00;;
68653;SDS011;55636;51.108;13.622;2023-08-06T00:59:12;4.00;;;3.70;;
68653;SDS011;55636;51.108;13.622;2023-08-06T01:00:15;4.45;;;4.05;;
68653;SDS011;55636;51.108;13.622;2023-08-06T01:01:18;4.53;;;4.13;;
68653;SDS011;55636;51.108;13.622;2023-08-06T01:02:20;4.32;;;3.92;;
68653;SDS011;55636;51.108;13.622;2023-08-06T01:03:23;4.53;;;4.13;;
68653;SDS011;55636;51.108;13.622;2023-08-06T01:04:26;4.82;;;4.00;;
68653;SDS011;55636;51.108;13.622;2023-08-06T01:05:28;4.50;;;4.10;;
68653;SDS011;55636;51.108;13.622;2023-08-06T01:10:53;4.38;;;4.07;;
68653;SDS011;55636;51.108;13.622;2023-08-06T01:13:43;4.35;;;3.90;;
68653;SDS011;55636;51.108;13.622;2023-08-06T01:14:54;4.63;;;4.18;;
68653;SDS011;55636;51.108;13.622;2023-08-06T01:16:03;4.70;;;4.13;;
68653;SDS011;55636;51.108;13.622;2023-08-06T01:17:07;4.55;;;4.15;;
68653;SDS011;55636;51.108;13.622;2023-08-06T01:18:11;4.55;;;4.10;;
68653;SDS011;55636;51.108;13.622;2023-08-06T01:19:16;4.55;;;4.15;;
68653;SDS011;55636;51.108;13.622;2023-08-06T01:20:19;4.43;;;4.03;;
68653;SDS011;55636;51.108;13.622;2023-08-06T01:21:22;4.13;;;3.83;;
68653;SDS011;55636;51.108;13.622;2023-08-06T01:22:24;4.47;;;4.07;;
68653;SDS011;55636;51.108;13.622;2023-08-06T01:23:26;4.30;;;4.00;;
68653;SDS011;55636;51.108;13.622;2023-08-06T01:24:29;4.28;;;3.92;;
68653;SDS011;55636;51.108;13.622;2023-08-06T01:25:35;4.20;;;3.90;;
68653;SDS011;55636;51.108;13.622;2023-08-06T01:28:15;5.32;;;4.10;;
68653;SDS011;55636;51.108;13.622;2023-08-06T01:29:31;9.82;;;4.53;;
68653;SDS011;55636;51.108;13.622;2023-08-06T01:30:38;4.75;;;4.25;;
68653;SDS011;55636;51.108;13.622;2023-08-06T01:31:43;6.00;;;4.45;;
68653;SDS011;55636;51.108;13.622;2023-08-06T01:32:53;5.22;;;4.75;;
68653;SDS011;55636;51.108;13.622;2023-08-06T01:34:02;5.05;;;4.65;;
68653;SDS011;55636;51.108;13.622;2023-08-06T01:35:07;4.88;;;4.47;;
68653;SDS011;55636;51.108;13.622;2023-08-06T01:36:12;4.70;;;4.30;;
68653;SDS011;55636;51.108;13.622;2023-08-06T01:37:17;4.85;;;4.45;;
68653;SDS011;55636;51.108;13.622;2023-08-06T01:38:20;5.00;;;4.60;;
68653;SDS011;55636;51.108;13.622;2023-08-06T01:39:23;4.72;;;4.32;;
68653;SDS011;55636;51.108;13.622;2023-08-06T01:40:25;4.75;;;4.35;;
68653;SDS011;55636;51.108;13.622;2023-08-06T01:41:31;4.75;;;4.38;;
68653;SDS011;55636;51.108;13.622;2023-08-06T01:42:33;4.78;;;4.38;;
68653;SDS011;55636;51.108;13.622;2023-08-06T01:43:36;5.30;;;4.75;;
68653;SDS011;55636;51.108;13.622;2023-08-06T01:44:38;5.47;;;4.97;;
68653;SDS011;55636;51.108;13.622;2023-08-06T01:45:41;5.20;;;4.80;;
68653;SDS011;55636;51.108;13.622;2023-08-06T01:46:43;5.85;;;4.70;;
68653;SDS011;55636;51.108;13.622;2023-08-06T01:47:45;5.13;;;4.70;;
68653;SDS011;55636;51.108;13.622;2023-08-06T01:48:48;4.75;;;4.35;;
68653;SDS011;55636;51.108;13.622;2023-08-06T01:49:50;5.18;;;4.78;;
68653;SDS011;55636;51.108;13.622;2023-08-06T01:50:53;5.00;;;4.60;;
68653;SDS011;55636;51.108;13.622;2023-08-06T01:51:56;4.55;;;4.10;;
68653;SDS011;55636;51.108;13.622;2023-08-06T01:52:58;5.18;;;4.68;;
68653;SDS011;55636;51.108;13.622;2023-08-06T01:54:01;4.93;;;4.43;;
68653;SDS011;55636;51.108;13.622;2023-08-06T01:55:03;6.05;;;5.00;;
68653;SDS011;55636;51.108;13.622;2023-08-06T01:56:06;4.80;;;4.32;;
68653;SDS011;55636;51.108;13.622;2023-08-06T01:57:09;4.80;;;4.40;;
68653;SDS011;55636;51.108;13.622;2023-08-06T01:58:12;5.00;;;4.47;;
68653;SDS011;55636;51.108;13.622;2023-08-06T01:59:14;5.30;;;4.80;;
68653;SDS011;55636;51.108;13.622;2023-08-06T02:00:16;4.97;;;4.53;;
68653;SDS011;55636;51.108;13.622;2023-08-06T02:01:19;4.90;;;4.50;;
68653;SDS011;55636;51.108;13.622;2023-08-06T02:02:21;7.20;;;4.80;;
68653;SDS011;55636;51.108;13.622;2023-08-06T02:03:24;5.25;;;4.85;;
68653;SDS011;55636;51.108;13.622;2023-08-06T02:04:26;5.13;;;4.57;;
68653;SDS011;55636;51.108;13.622;2023-08-06T02:05:29;5.35;;;4.95;;
68653;SDS011;55636;51.108;13.622;2023-08-06T02:06:31;5.35;;;4.85;;
68653;SDS011;55636;51.108;13.622;2023-08-06T02:07:34;5.07;;;4.63;;
68653;SDS011;55636;51.108;13.622;2023-08-06T02:08:37;5.30;;;4.88;;
68653;SDS011;55636;51.108;13.622;2023-08-06T02:09:41;5.80;;;5.00;;
68653;SDS011;55636;51.108;13.622;2023-08-06T02:10:44;5.18;;;4.72;;
68653;SDS011;55636;51.108;13.622;2023-08-06T02:11:47;5.55;;;5.07;;
68653;SDS011;55636;51.108;13.622;2023-08-06T02:12:49;5.22;;;4.82;;
68653;SDS011;55636;51.108;13.622;2023-08-06T02:13:51;5.38;;;4.60;;
68653;SDS011;55636;51.108;13.622;2023-08-06T02:14:54;4.82;;;4.43;;
68653;SDS011;55636;51.108;13.622;2023-08-06T02:15:56;5.18;;;4.68;;
68653;SDS011;55636;51.108;13.622;2023-08-06T02:16:59;5.22;;;4.68;;
68653;SDS011;55636;51.108;13.622;2023-08-06T02:18:02;5.20;;;4.70;;
68653;SDS011;55636;51.108;13.622;2023-08-06T02:19:04;4.85;;;4.45;;
68653;SDS011;55636;51.108;13.622;2023-08-06T02:20:06;5.00;;;4.60;;
68653;SDS011;55636;51.108;13.622;2023-08-06T02:21:09;4.43;;;4.03;;
68653;SDS011;55636;51.108;13.622;2023-08-06T02:22:12;5.22;;;4.72;;
68653;SDS011;55636;51.108;13.622;2023-08-06T02:23:16;5.65;;;4.60;;
68653;SDS011;55636;51.108;13.622;2023-08-06T02:24:18;5.70;;;4.88;;
68653;SDS011;55636;51.108;13.622;2023-08-06T02:25:21;5.18;;;4.75;;
68653;SDS011;55636;51.108;13.622;2023-08-06T02:26:23;5.07;;;4.65;;
68653;SDS011;55636;51.108;13.622;2023-08-06T02:27:26;5.03;;;4.53;;
68653;SDS011;55636;51.108;13.622;2023-08-06T02:28:30;5.20;;;4.70;;
68653;SDS011;55636;51.108;13.622;2023-08-06T02:29:33;5.35;;;4.95;;
68653;SDS011;55636;51.108;13.622;2023-08-06T02:30:35;4.82;;;4.43;;
68653;SDS011;55636;51.108;13.622;2023-08-06T02:31:38;5.00;;;4.60;;
68653;SDS011;55636;51.108;13.622;2023-08-06T02:32:40;5.60;;;4.93;;
68653;SDS011;55636;51.108;13.622;2023-08-06T02:33:43;5.97;;;5.05;;
68653;SDS011;55636;51.108;13.622;2023-08-06T02:34:45;5.13;;;4.63;;
68653;SDS011;55636;51.108;13.622;2023-08-06T02:35:48;5.38;;;4.80;;
68653;SDS011;55636;51.108;13.622;2023-08-06T02:36:51;5.45;;;4.88;;
68653;SDS011;55636;51.108;13.622;2023-08-06T02:37:53;5.65;;;5.15;;
68653;SDS011;55636;51.108;13.622;2023-08-06T02:38:56;5.65;;;5.15;;
68653;SDS011;55636;51.108;13.622;2023-08-06T02:39:59;5.32;;;4.82;;
68653;SDS011;55636;51.108;13.622;2023-08-06T02:41:02;5.68;;;5.18;;
68653;SDS011;55636;51.108;13.622;2023-08-06T02:42:06;5.72;;;5.22;;
68653;SDS011;55636;51.108;13.622;2023-08-06T02:43:09;5.60;;;4.90;;
68653;SDS011;55636;51.108;13.622;2023-08-06T02:44:12;6.10;;;5.50;;
68653;SDS011;55636;51.108;13.622;2023-08-06T02:45:14;5.88;;;5.38;;
68653;SDS011;55636;51.108;13.622;2023-08-06T02:46:16;6.00;;;5.50;;
68653;SDS011;55636;51.108;13.622;2023-08-06T02:47:19;5.80;;;5.13;;
68653;SDS011;55636;51.108;13.622;2023-08-06T02:48:21;6.03;;;5.43;;
68653;SDS011;55636;51.108;13.622;2023-08-06T02:49:24;5.78;;;5.15;;
68653;SDS011;55636;51.108;13.622;2023-08-06T02:50:26;5.70;;;5.20;;
68653;SDS011;55636;51.108;13.622;2023-08-06T02:51:29;6.43;;;5.82;;
68653;SDS011;55636;51.108;13.622;2023-08-06T02:52:31;6.00;;;5.40;;
68653;SDS011;55636;51.108;13.622;2023-08-06T02:53:33;5.97;;;5.47;;
68653;SDS011;55636;51.108;13.622;2023-08-06T02:54:40;5.95;;;5.45;;
68653;SDS011;55636;51.108;13.622;2023-08-06T02:55:46;5.97;;;5.40;;
68653;SDS011;55636;51.108;13.622;2023-08-06T02:56:52;6.68;;;5.22;;
68653;SDS011;55636;51.108;13.622;2023-08-06T02:58:02;5.65;;;5.15;;
68653;SDS011;55636;51.108;13.622;2023-08-06T02:59:09;6.18;;;5.50;;
68653;SDS011;55636;51.108;13.622;2023-08-06T03:00:21;6.13;;;5.13;;
68653;SDS011;55636;51.108;13.622;2023-08-06T03:01:24;5.70;;;5.20;;
68653;SDS011;55636;51.108;13.622;2023-08-06T03:02:33;5.38;;;4.97;;
68653;SDS011;55636;51.108;13.622;2023-08-06T03:03:50;5.70;;;5.18;;
68653;SDS011;55636;51.108;13.622;2023-08-06T03:04:58;6.30;;;5.25;;
68653;SDS011;55636;51.108;13.622;2023-08-06T03:06:05;5.40;;;4.90;;
68653;SDS011;55636;51.108;13.622;2023-08-06T03:07:15;5.68;;;5.18;;
68653;SDS011;55636;51.108;13.622;2023-08-06T03:08:28;5.50;;;4.97;;
68653;SDS011;55636;51.108;13.622;2023-08-06T03:09:30;5.80;;;5.30;;
68653;SDS011;55636;51.108;13.622;2023-08-06T03:10:33;5.45;;;4.95;;
68653;SDS011;55636;51.108;13.622;2023-08-06T03:11:38;6.63;;;5.35;;
68653;SDS011;55636;51.108;13.622;2023-08-06T03:12:45;6.00;;;5.50;;
68653;SDS011;55636;51.108;13.622;2023-08-06T03:13:48;5.70;;;5.20;;
68653;SDS011;55636;51.108;13.622;2023-08-06T03:14:51;5.88;;;4.95;;
68653;SDS011;55636;51.108;13.622;2023-08-06T03:15:55;5.65;;;5.15;;
68653;SDS011;55636;51.108;13.622;2023-08-06T03:16:59;5.90;;;5.35;;
68653;SDS011;55636;51.108;13.622;2023-08-06T03:18:02;6.10;;;5.50;;
68653;SDS011;55636;51.108;13.622;2023-08-06T03:19:05;5.90;;;5.30;;
68653;SDS011;55636;51.108;13.622;2023-08-06T03:20:08;5.97;;;4.97;;
68653;SDS011;55636;51.108;13.622;2023-08-06T03:21:11;6.00;;;5.40;;
68653;SDS011;55636;51.108;13.622;2023-08-06T03:22:13;5.90;;;5.43;;
68653;SDS011;55636;51.108;13.622;2023-08-06T03:23:16;5.75;;;5.25;;
68653;SDS011;55636;51.108;13.622;2023-08-06T03:24:18;5.70;;;5.20;;
68653;SDS011;55636;51.108;13.622;2023-08-06T03:25:21;5.65;;;5.07;;
68653;SDS011;55636;51.108;13.622;2023-08-06T03:26:25;6.05;;;5.25;;
68653;SDS011;55636;51.108;13.622;2023-08-06T03:27:27;5.70;;;5.20;;
68653;SDS011;55636;51.108;13.622;2023-08-06T03:28:30;5.38;;;4.97;;
68653;SDS011;55636;51.108;13.622;2023-08-06T03:29:33;5.13;;;4.63;;
68653;SDS011;55636;51.108;13.622;2023-08-06T03:30:36;5.93;;;5.43;;
68653;SDS011;55636;51.108;13.622;2023-08-06T03:31:40;5.22;;;4.72;;
68653;SDS011;55636;51.108;13.622;2023-08-06T03:32:44;5.78;;;5.30;;
68653;SDS011;55636;51.108;13.622;2023-08-06T03:33:47;5.68;;;5.18;;
68653;SDS011;55636;51.108;13.622;2023-08-06T03:34:53;6.25;;;5.68;;
68653;SDS011;55636;51.108;13.622;2023-08-06T03:35:57;5.65;;;5.20;;
68653;SDS011;55636;51.108;13.622;2023-08-06T03:36:59;5.90;;;5.40;;
68653;SDS011;55636;51.108;13.622;2023-08-06T03:38:03;6.00;;;5.47;;
68653;SDS011;55636;51.108;13.622;2023-08-06T03:39:05;5.68;;;5.25;;
68653;SDS011;55636;51.108;13.622;2023-08-06T03:40:08;5.35;;;4.95;;
68653;SDS011;55636;51.108;13.622;2023-08-06T03:41:11;6.00;;;5.50;;
68653;SDS011;55636;51.108;13.622;2023-08-06T03:42:14;5.85;;;5.25;;
68653;SDS011;55636;51.108;13.622;2023-08-06T03:43:16;5.72;;;5.22;;
68653;SDS011;55636;51.108;13.622;2023-08-06T03:44:19;5.65;;;5.10;;
68653;SDS011;55636;51.108;13.622;2023-08-06T03:45:21;5.60;;;5.10;;
68653;SDS011;55636;51.108;13.622;2023-08-06T03:46:24;5.93;;;5.43;;
68653;SDS011;55636;51.108;13.622;2023-08-06T03:47:28;5.97;;;5.38;;
68653;SDS011;55636;51.108;13.622;2023-08-06T03:48:30;5.80;;;5.30;;
68653;SDS011;55636;51.108;13.622;2023-08-06T03:49:33;5.88;;;5.30;;
68653;SDS011;55636;51.108;13.622;2023-08-06T03:50:35;5.78;;;5.28;;
68653;SDS011;55636;51.108;13.622;2023-08-06T03:51:37;5.68;;;5.28;;
68653;SDS011;55636;51.108;13.622;2023-08-06T03:52:40;5.90;;;5.40;;
68653;SDS011;55636;51.108;13.622;2023-08-06T03:53:42;5.75;;;5.25;;
68653;SDS011;55636;51.108;13.622;2023-08-06T03:54:45;5.35;;;4.95;;
68653;SDS011;55636;51.108;13.622;2023-08-06T03:55:47;5.20;;;4.80;;
68653;SDS011;55636;51.108;13.622;2023-08-06T03:56:50;5.75;;;5.25;;
68653;SDS011;55636;51.108;13.622;2023-08-06T03:57:53;6.88;;;6.28;;
68653;SDS011;55636;51.108;13.622;2023-08-06T03:58:56;7.18;;;6.47;;
68653;SDS011;55636;51.108;13.622;2023-08-06T03:59:59;7.32;;;6.63;;
68653;SDS011;55636;51.108;13.622;2023-08-06T04:01:03;7.53;;;6.82;;
68653;SDS011;55636;51.108;13.622;2023-08-06T04:02:15;7.78;;;7.05;;
68653;SDS011;55636;51.108;13.622;2023-08-06T04:03:17;7.60;;;6.88;;
68653;SDS011;55636;51.108;13.622;2023-08-06T04:04:20;7.78;;;7.13;;
68653;SDS011;55636;51.108;13.622;2023-08-06T04:05:22;7.90;;;7.20;;
68653;SDS011;55636;51.108;13.622;2023-08-06T04:06:25;7.70;;;7.00;;
68653;SDS011;55636;51.108;13.622;2023-08-06T04:07:28;7.25;;;6.65;;
68653;SDS011;55636;51.108;13.622;2023-08-06T04:08:30;6.93;;;6.32;;
68653;SDS011;55636;51.108;13.622;2023-08-06T04:09:34;7.90;;;7.10;;
68653;SDS011;55636;51.108;13.622;2023-08-06T04:10:36;7.60;;;7.00;;
68653;SDS011;55636;51.108;13.622;2023-08-06T04:11:39;7.47;;;6.82;;
68653;SDS011;55636;51.108;13.622;2023-08-06T04:12:43;8.02;;;7.22;;
68653;SDS011;55636;51.108;13.622;2023-08-06T04:13:45;7.43;;;6.72;;
68653;SDS011;55636;51.108;13.622;2023-08-06T04:14:49;8.10;;;7.30;;
68653;SDS011;55636;51.108;13.622;2023-08-06T04:15:53;7.75;;;7.13;;
68653;SDS011;55636;51.108;13.622;2023-08-06T04:16:56;7.63;;;6.93;;
68653;SDS011;55636;51.108;13.622;2023-08-06T04:17:59;7.15;;;6.55;;
68653;SDS011;55636;51.108;13.622;2023-08-06T04:19:01;7.22;;;6.55;;
68653;SDS011;55636;51.108;13.622;2023-08-06T04:20:04;7.68;;;6.88;;
68653;SDS011;55636;51.108;13.622;2023-08-06T04:21:07;7.38;;;6.68;;
68653;SDS011;55636;51.108;13.622;2023-08-06T04:22:09;7.40;;;6.70;;
68653;SDS011;55636;51.108;13.622;2023-08-06T04:23:12;7.05;;;6.45;;
68653;SDS011;55636;51.108;13.622;2023-08-06T04:24:14;6.95;;;6.35;;
68653;SDS011;55636;51.108;13.622;2023-08-06T04:25:17;7.10;;;6.45;;
68653;SDS011;55636;51.108;13.622;2023-08-06T04:26:23;6.85;;;6.25;;
68653;SDS011;55636;51.108;13.622;2023-08-06T04:27:25;6.40;;;5.80;;
68653;SDS011;55636;51.108;13.622;2023-08-06T04:28:28;6.93;;;6.32;;
68653;SDS011;55636;51.108;13.622;2023-08-06T04:29:30;6.70;;;6.10;;
68653;SDS011;55636;51.108;13.622;2023-08-06T04:30:33;6.80;;;6.20;;
68653;SDS011;55636;51.108;13.622;2023-08-06T04:31:37;6.55;;;5.95;;
68653;SDS011;55636;51.108;13.622;2023-08-06T04:32:40;6.63;;;6.10;;
68653;SDS011;55636;51.108;13.622;2023-08-06T04:33:42;6.40;;;5.80;;
68653;SDS011;55636;51.108;13.622;2023-08-06T04:34:47;6.78;;;6.18;;
68653;SDS011;55636;51.108;13.622;2023-08-06T04:35:54;6.80;;;6.20;;
68653;SDS011;55636;51.108;13.622;2023-08-06T04:36:59;6.80;;;6.10;;
68653;SDS011;55636;51.108;13.622;2023-08-06T04:38:01;6.30;;;5.80;;
68653;SDS011;55636;51.108;13.622;2023-08-06T04:39:04;5.97;;;5.47;;
68653;SDS011;55636;51.108;13.622;2023-08-06T04:40:07;6.32;;;5.72;;
68653;SDS011;55636;51.108;13.622;2023-08-06T04:41:10;6.15;;;5.65;;
68653;SDS011;55636;51.108;13.622;2023-08-06T04:42:12;6.35;;;5.85;;
68653;SDS011;55636;51.108;13.622;2023-08-06T04:43:15;5.80;;;5.32;;
68653;SDS011;55636;51.108;13.622;2023-08-06T04:44:17;5.93;;;5.40;;
68653;SDS011;55636;51.108;13.622;2023-08-06T04:45:20;6.28;;;5.72;;
68653;SDS011;55636;51.108;13.622;2023-08-06T04:46:22;6.25;;;5.65;;
68653;SDS011;55636;51.108;13.622;2023-08-06T04:47:25;6.20;;;5.65;;
68653;SDS011;55636;51.108;13.622;2023-08-06T04:48:28;6.00;;;5.50;;
68653;SDS011;55636;51.108;13.622;2023-08-06T04:49:30;5.63;;;5.22;;
68653;SDS011;55636;51.108;13.622;2023-08-06T04:50:33;6.22;;;5.72;;
68653;SDS011;55636;51.108;13.622;2023-08-06T04:51:35;6.28;;;5.68;;
68653;SDS011;55636;51.108;13.622;2023-08-06T04:52:38;6.00;;;5.40;;
68653;SDS011;55636;51.108;13.622;2023-08-06T04:53:40;6.05;;;5.55;;
68653;SDS011;55636;51.108;13.622;2023-08-06T04:54:43;6.40;;;5.80;;
68653;SDS011;55636;51.108;13.622;2023-08-06T04:55:46;5.32;;;4.93;;
68653;SDS011;55636;51.108;13.622;2023-08-06T04:56:48;5.88;;;5.28;;
68653;SDS011;55636;51.108;13.622;2023-08-06T04:57:50;5.63;;;5.07;;
68653;SDS011;55636;51.108;13.622;2023-08-06T04:58:53;5.72;;;5.22;;
68653;SDS011;55636;51.108;13.622;2023-08-06T04:59:55;6.53;;;5.15;;
68653;SDS011;55636;51.108;13.622;2023-08-06T05:00:58;5.57;;;5.00;;
68653;SDS011;55636;51.108;13.622;2023-08-06T05:02:00;6.00;;;5.50;;
68653;SDS011;55636;51.108;13.622;2023-08-06T05:03:03;5.63;;;5.20;;
68653;SDS011;55636;51.108;13.622;2023-08-06T05:04:05;6.20;;;5.70;;
68653;SDS011;55636;51.108;13.622;2023-08-06T05:05:08;6.15;;;5.55;;
68653;SDS011;55636;51.108;13.622;2023-08-06T05:06:10;5.90;;;5.40;;
68653;SDS011;55636;51.108;13.622;2023-08-06T05:07:13;5.82;;;5.32;;
68653;SDS011;55636;51.108;13.622;2023-08-06T05:08:15;6.22;;;5.72;;
68653;SDS011;55636;51.108;13.622;2023-08-06T05:09:21;5.90;;;5.35;;
68653;SDS011;55636;51.108;13.622;2023-08-06T05:10:26;5.95;;;5.35;;
68653;SDS011;55636;51.108;13.622;2023-08-06T05:11:29;5.93;;;5.43;;
68653;SDS011;55636;51.108;13.622;2023-08-06T05:12:32;6.78;;;5.80;;
68653;SDS011;55636;51.108;13.622;2023-08-06T05:13:34;6.18;;;5.68;;
68653;SDS011;55636;51.108;13.622;2023-08-06T05:14:36;6.43;;;5.78;;
68653;SDS011;55636;51.108;13.622;2023-08-06T05:15:39;5.68;;;5.18;;
68653;SDS011;55636;51.108;13.622;2023-08-06T05:16:44;5.82;;;5.32;;
68653;SDS011;55636;51.108;13.622;2023-08-06T05:17:47;5.57;;;5.18;;
68653;SDS011;55636;51.108;13.622;2023-08-06T05:18:49;5.55;;;5.13;;
68653;SDS011;55636;51.108;13.622;2023-08-06T05:19:52;5.50;;;5.00;;
68653;SDS011;55636;51.108;13.622;2023-08-06T05:20:54;5.53;;;5.03;;
68653;SDS011;55636;51.108;13.622;2023-08-06T05:21:57;5.32;;;4.88;;
68653;SDS011;55636;51.108;13.622;2023-08-06T05:22:59;4.95;;;4.55;;
68653;SDS011;55636;51.108;13.622;2023-08-06T05:24:02;4.75;;;4.35;;
68653;SDS011;55636;51.108;13.622;2023-08-06T05:25:04;4.95;;;4.55;;
68653;SDS011;55636;51.108;13.622;2023-08-06T05:26:08;5.13;;;4.70;;
68653;SDS011;55636;51.108;13.622;2023-08-06T05:27:11;5.20;;;4.70;;
68653;SDS011;55636;51.108;13.622;2023-08-06T05:28:13;5.03;;;4.63;;
68653;SDS011;55636;51.108;13.622;2023-08-06T05:29:16;5.45;;;4.95;;
68653;SDS011;55636;51.108;13.622;2023-08-06T05:30:18;5.00;;;4.60;;
68653;SDS011;55636;51.108;13.622;2023-08-06T05:31:21;5.35;;;4.95;;
68653;SDS011;55636;51.108;13.622;2023-08-06T05:32:24;5.57;;;5.07;;
68653;SDS011;55636;51.108;13.622;2023-08-06T05:33:26;5.25;;;4.82;;
68653;SDS011;55636;51.108;13.622;2023-08-06T05:34:29;5.30;;;4.88;;
68653;SDS011;55636;51.108;13.622;2023-08-06T05:35:31;5.43;;;5.00;;
68653;SDS011;55636;51.108;13.622;2023-08-06T05:36:35;5.20;;;4.80;;
68653;SDS011;55636;51.108;13.622;2023-08-06T05:37:37;4.95;;;4.55;;
68653;SDS011;55636;51.108;13.622;2023-08-06T05:38:40;5.28;;;4.88;;
68653;SDS011;55636;51.108;13.622;2023-08-06T05:39:42;5.03;;;4.53;;
68653;SDS011;55636;51.108;13.622;2023-08-06T05:40:44;5.38;;;4.88;;
68653;SDS011;55636;51.108;13.622;2023-08-06T05:41:47;5.60;;;5.10;;
68653;SDS011;55636;51.108;13.622;2023-08-06T05:42:49;5.63;;;5.10;;
68653;SDS011;55636;51.108;13.622;2023-08-06T05:43:52;5.90;;;5.40;;
68653;SDS011;55636;51.108;13.622;2023-08-06T05:44:54;5.95;;;5.45;;
68653;SDS011;55636;51.108;13.622;2023-08-06T05:45:56;5.78;;;5.28;;
68653;SDS011;55636;51.108;13.622;2023-08-06T05:46:59;5.72;;;5.22;;
68653;SDS011;55636;51.108;13.622;2023-08-06T05:48:02;5.82;;;5.22;;
68653;SDS011;55636;51.108;13.622;2023-08-06T05:49:04;6.10;;;5.50;;
68653;SDS011;55636;51.108;13.622;2023-08-06T05:50:07;6.45;;;5.40;;
68653;SDS011;55636;51.108;13.622;2023-08-06T05:51:11;5.80;;;5.30;;
68653;SDS011;55636;51.108;13.622;2023-08-06T05:52:15;6.07;;;5.47;;
68653;SDS011;55636;51.108;13.622;2023-08-06T05:53:17;5.43;;;5.03;;
68653;SDS011;55636;51.108;13.622;2023-08-06T05:54:20;6.15;;;5.53;;
68653;SDS011;55636;51.108;13.622;2023-08-06T05:55:22;6.90;;;6.30;;
68653;SDS011;55636;51.108;13.622;2023-08-06T05:56:25;5.88;;;5.40;;
68653;SDS011;55636;51.108;13.622;2023-08-06T05:57:28;5.88;;;5.38;;
68653;SDS011;55636;51.108;13.622;2023-08-06T05:58:31;6.00;;;5.50;;
68653;SDS011;55636;51.108;13.622;2023-08-06T05:59:33;5.93;;;5.43;;
68653;SDS011;55636;51.108;13.622;2023-08-06T06:00:36;5.78;;;5.22;;
68653;SDS011;55636;51.108;13.622;2023-08-06T06:01:39;6.18;;;5.57;;
68653;SDS011;55636;51.108;13.622;2023-08-06T06:02:41;5.45;;;4.97;;
68653;SDS011;55636;51.108;13.622;2023-08-06T06:03:44;5.80;;;5.30;;
68653;SDS011;55636;51.108;13.622;2023-08-06T06:04:46;5.55;;;5.05;;
68653;SDS011;55636;51.108;13.622;2023-08-06T06:05:49;5.55;;;5.13;;
68653;SDS011;55636;51.108;13.622;2023-08-06T06:06:51;5.25;;;4.85;;
68653;SDS011;55636;51.108;13.622;2023-08-06T06:07:53;5.15;;;4.75;;
68653;SDS011;55636;51.108;13.622;2023-08-06T06:08:56;5.28;;;4.88;;
68653;SDS011;55636;51.108;13.622;2023-08-06T06:09:58;5.00;;;4.60;;
68653;SDS011;55636;51.108;13.622;2023-08-06T06:11:01;5.38;;;4.88;;
68653;SDS011;55636;51.108;13.622;2023-08-06T06:12:03;6.10;;;5.55;;
68653;SDS011;55636;51.108;13.622;2023-08-06T06:13:06;5.25;;;4.85;;
68653;SDS011;55636;51.108;13.622;2023-08-06T06:14:11;5.38;;;4.90;;
68653;SDS011;55636;51.108;13.622;2023-08-06T06:15:13;5.38;;;4.88;;
68653;SDS011;55636;51.108;13.622;2023-08-06T06:16:16;5.55;;;5.10;;
68653;SDS011;55636;51.108;13.622;2023-08-06T06:17:18;5.50;;;5.00;;
68653;SDS011;55636;51.108;13.622;2023-08-06T06:18:21;5.10;;;4.65;;
68653;SDS011;55636;51.108;13.622;2023-08-06T06:19:24;5.65;;;5.20;;
68653;SDS011;55636;51.108;13.622;2023-08-06T06:20:29;5.45;;;5.05;;
68653;SDS011;55636;51.108;13.622;2023-08-06T06:21:32;5.38;;;4.50;;
68653;SDS011;55636;51.108;13.622;2023-08-06T06:22:35;4.72;;;4.32;;